Time;durP1;ratioP1;P1;durP2;ratioP2;P2;SDS_P1;SDS_P2;PMS_P1;PMS_P2;Temp;Humidity;BMP_temperature;BMP_pressure;BME280_temperature;BME280_humidity;BME280_pressure;Samples;Min_cycle;Max_cycle;Signal;HPM_P1;HPM_P2
2024/02/20 00:00:11;;;;;;;;;;;;;;;6.21;88.71;100254.91;5116921;28;19927;-64
2024/02/20 00:02:41;;;;;;;;;;;;;;;6.19;88.90;100246.38;5116780;28;19949;-63
2024/02/20 00:05:09;;;;;;;;;;;;;;;6.16;88.96;100251.41;5115319;28;20365;-64
2024/02/20 00:07:38;;;;;;;;;;;;;;;6.11;89.12;100258.03;5116277;28;19927;-64
2024/02/20 00:10:07;;;;;;;;;;;;;;;6.06;89.24;100254.50;5116795;28;19969;-64
2024/02/20 00:12:37;;;;;;;;;;;;;;;6.09;89.24;100247.00;5115360;28;19970;-64
2024/02/20 00:15:07;;;;;;;;;;;;;;;6.16;89.21;100261.53;5115825;28;20334;-64
2024/02/20 00:17:35;;;;;;;;;;;;;;;6.19;89.33;100258.22;5116598;28;20014;-64
2024/02/20 00:20:05;;;;;;;;;;;;;;;6.19;89.51;100256.53;5116444;28;19970;-64
2024/02/20 00:22:34;;;;;;;;;;;;;;;6.23;89.36;100258.34;5116750;27;19926;-65
2024/02/20 00:25:03;;;;;;;;;;;;;;;6.22;89.35;100250.69;5116223;28;20421;-65
2024/02/20 00:27:32;;;;;;;;;;;;;;;6.18;89.57;100257.38;5116005;28;19925;-64
2024/02/20 00:30:03;;;;;;;;;;;;;;;6.16;89.51;100251.41;5116418;28;19963;-64
2024/02/20 00:32:32;;;;;;;;;;;;;;;6.16;88.67;100245.47;5116274;28;20262;-65
2024/02/20 00:35:00;;;;;;;;;;;;;;;6.14;88.84;100250.50;5115685;28;20011;-65
2024/02/20 00:37:30;;;;;;;;;;;;;;;6.13;89.03;100246.25;5116220;28;19927;-64
2024/02/20 00:39:58;;;;;;;;;;;;;;;6.12;88.27;100251.28;5116177;28;19923;-65
2024/02/20 00:42:28;;;;;;;;;;;;;;;6.08;88.70;100252.88;5114959;28;19919;-64
2024/02/20 00:44:56;;;;;;;;;;;;;;;5.99;87.90;100245.03;5115898;28;19923;-64
2024/02/20 00:47:27;;;;;;;;;;;;;;;5.90;87.86;100248.16;5115626;28;19926;-64
2024/02/20 00:49:55;;;;;;;;;;;;;;;5.83;87.64;100245.41;5114829;28;19920;-64
2024/02/20 00:52:24;;;;;;;;;;;;;;;5.78;87.24;100252.88;5113352;28;20341;-64
2024/02/20 00:54:53;;;;;;;;;;;;;;;5.69;87.36;100251.75;5115536;28;20464;-65
2024/02/20 00:57:21;;;;;;;;;;;;;;;5.59;87.43;100245.56;5115622;28;19973;-64
2024/02/20 00:59:50;;;;;;;;;;;;;;;5.55;87.16;100248.84;5115828;28;19920;-65
2024/02/20 01:02:19;;;;;;;;;;;;;;;5.55;87.62;100248.84;5115772;28;20019;-65
2024/02/20 01:04:49;;;;;;;;;;;;;;;5.49;87.54;100247.81;5115822;28;19992;-65
2024/02/20 01:07:17;;;;;;;;;;;;;;;5.46;87.36;100242.66;5115478;28;19920;-65
2024/02/20 01:09:45;;;;;;;;;;;;;;;5.46;87.42;100245.19;5115579;28;19924;-65
2024/02/20 01:12:14;;;;;;;;;;;;;;;5.42;87.58;100239.19;5115602;28;19920;-64
2024/02/20 01:14:44;;;;;;;;;;;;;;;5.39;87.59;100227.31;5115509;28;19927;-64
2024/02/20 01:17:12;;;;;;;;;;;;;;;5.48;87.51;100235.97;5115780;28;19972;-64
2024/02/20 01:19:41;;;;;;;;;;;;;;;5.56;87.60;100230.31;5113752;28;19920;-64
2024/02/20 01:22:11;;;;;;;;;;;;;;;5.58;87.79;100232.88;5115362;28;19931;-64
2024/02/20 01:24:40;;;;;;;;;;;;;;;5.54;87.49;100234.50;5114664;28;19923;-64
2024/02/20 01:27:08;;;;;;;;;;;;;;;5.51;87.61;100231.00;5115110;28;19928;-64
2024/02/20 01:29:37;;;;;;;;;;;;;;;5.41;86.79;100225.69;5115279;28;19920;-64
2024/02/20 01:32:05;;;;;;;;;;;;;;;5.37;87.47;100221.31;5115776;28;19926;-65
2024/02/20 01:34:34;;;;;;;;;;;;;;;5.29;86.99;100235.44;5114718;28;19968;-65
2024/02/20 01:37:02;;;;;;;;;;;;;;;5.22;87.10;100228.50;5115283;28;19924;-64
2024/02/20 01:39:33;;;;;;;;;;;;;;;5.13;87.26;100230.75;5115302;28;19919;-65
2024/02/20 01:42:02;;;;;;;;;;;;;;;5.06;86.90;100228.84;5096769;28;19927;-65
2024/02/20 01:44:32;;;;;;;;;;;;;;;5.02;87.19;100224.50;5114790;28;19942;-65
2024/02/20 01:47:01;;;;;;;;;;;;;;;4.94;87.01;100228.50;5114276;28;20365;-64
2024/02/20 01:49:29;;;;;;;;;;;;;;;4.84;87.05;100223.97;5113910;28;19924;-64
2024/02/20 01:51:59;;;;;;;;;;;;;;;4.72;86.80;100219.41;5114958;28;20254;-65
2024/02/20 01:54:28;;;;;;;;;;;;;;;4.70;87.02;100217.63;5115143;28;20357;-64
2024/02/20 01:56:58;;;;;;;;;;;;;;;4.70;87.45;100207.50;5114722;28;19920;-64
2024/02/20 01:59:26;;;;;;;;;;;;;;;4.71;87.50;100211.75;5115071;28;19963;-65
2024/02/20 02:01:55;;;;;;;;;;;;;;;4.66;87.54;100209.06;5114754;28;19926;-65
2024/02/20 02:04:24;;;;;;;;;;;;;;;4.61;87.51;100208.06;5114460;28;20424;-64
2024/02/20 02:06:52;;;;;;;;;;;;;;;4.60;87.70;100211.44;5114515;28;19980;-65
2024/02/20 02:09:21;;;;;;;;;;;;;;;4.56;87.82;100206.19;5114373;28;20391;-64
2024/02/20 02:11:49;;;;;;;;;;;;;;;4.53;87.82;100206.13;5114515;28;19931;-65
2024/02/20 02:14:19;;;;;;;;;;;;;;;4.55;87.81;100205.38;5114595;28;19926;-65
2024/02/20 02:16:47;;;;;;;;;;;;;;;4.58;88.36;100205.44;5114207;28;20021;-64
2024/02/20 02:19:16;;;;;;;;;;;;;;;4.61;87.99;100204.69;5114539;28;19969;-64
2024/02/20 02:21:45;;;;;;;;;;;;;;;4.64;88.21;100199.72;5114768;28;19966;-65
2024/02/20 02:24:13;;;;;;;;;;;;;;;4.62;88.32;100202.22;5114431;28;19920;-65
2024/02/20 02:26:43;;;;;;;;;;;;;;;4.60;88.43;100190.34;5113560;28;19919;-64
2024/02/20 02:29:12;;;;;;;;;;;;;;;4.60;88.37;100188.69;5114986;28;20026;-64
2024/02/20 02:31:40;;;;;;;;;;;;;;;4.59;88.48;100196.19;5114496;28;19920;-64
2024/02/20 02:34:09;;;;;;;;;;;;;;;4.61;88.47;100202.16;5114520;28;20021;-65
2024/02/20 02:36:37;;;;;;;;;;;;;;;4.61;88.65;100203.00;5114457;28;20432;-65
2024/02/20 02:39:07;;;;;;;;;;;;;;;4.59;88.60;100206.31;5114178;28;19926;-65
2024/02/20 02:41:36;;;;;;;;;;;;;;;4.55;88.70;100207.03;5114481;28;19958;-65
2024/02/20 02:44:06;;;;;;;;;;;;;;;4.52;88.63;100204.41;5113216;28;20345;-65
2024/02/20 02:46:35;;;;;;;;;;;;;;;4.46;88.67;100199.16;5114122;28;20004;-64
2024/02/20 02:49:05;;;;;;;;;;;;;;;4.42;88.48;100197.31;5112880;28;19919;-65
2024/02/20 02:51:34;;;;;;;;;;;;;;;4.37;88.82;100201.38;5114533;28;19969;-64
2024/02/20 02:54:02;;;;;;;;;;;;;;;4.29;88.40;100205.34;5114698;28;19926;-64
2024/02/20 02:56:31;;;;;;;;;;;;;;;4.17;88.47;100212.50;5114563;28;19920;-65
2024/02/20 02:59:00;;;;;;;;;;;;;;;4.07;88.69;100211.34;5115388;28;19930;-64
2024/02/20 03:01:30;;;;;;;;;;;;;;;3.99;88.58;100213.63;5118516;28;20281;-65
2024/02/20 03:04:00;;;;;;;;;;;;;;;3.97;88.85;100206.78;5116889;28;19942;-64
2024/02/20 03:06:28;;;;;;;;;;;;;;;3.97;88.44;100202.59;5118186;28;19974;-65
2024/02/20 03:08:57;;;;;;;;;;;;;;;3.98;88.89;100204.31;5117808;28;20373;-65
2024/02/20 03:11:25;;;;;;;;;;;;;;;4.01;88.62;100199.38;5116843;28;19920;-65
2024/02/20 03:13:54;;;;;;;;;;;;;;;4.04;88.46;100199.47;5118323;28;19920;-65
2024/02/20 03:16:24;;;;;;;;;;;;;;;4.00;88.81;100202.72;5117857;28;19920;-64
2024/02/20 03:18:54;;;;;;;;;;;;;;;3.96;89.04;100200.88;5118380;28;20357;-64
2024/02/20 03:21:24;;;;;;;;;;;;;;;3.93;88.80;100200.81;5118199;28;19972;-65
2024/02/20 03:23:52;;;;;;;;;;;;;;;3.92;88.82;100201.59;5118176;28;19942;-65
2024/02/20 03:26:21;;;;;;;;;;;;;;;3.96;89.14;100194.97;5117620;28;19927;-65
2024/02/20 03:28:50;;;;;;;;;;;;;;;3.97;89.38;100201.75;5117414;28;19976;-64
2024/02/20 03:31:18;;;;;;;;;;;;;;;3.99;89.21;100211.09;5117400;28;19919;-64
2024/02/20 03:33:47;;;;;;;;;;;;;;;3.98;89.43;100204.31;5117662;28;19920;-64
2024/02/20 03:36:17;;;;;;;;;;;;;;;3.94;89.45;100212.59;5118197;28;20292;-64
2024/02/20 03:38:46;;;;;;;;;;;;;;;3.97;89.60;100212.72;5117521;28;20009;-64
2024/02/20 03:41:16;;;;;;;;;;;;;;;4.05;89.75;100211.28;5117495;28;19923;-64
2024/02/20 03:43:44;;;;;;;;;;;;;;;4.12;89.47;100221.59;5117446;28;20032;-64
2024/02/20 03:46:13;;;;;;;;;;;;;;;4.18;89.80;100221.78;5117739;28;19919;-64
2024/02/20 03:48:41;;;;;;;;;;;;;;;4.19;89.61;100218.47;5098558;28;20370;-64
2024/02/20 03:51:10;;;;;;;;;;;;;;;4.17;89.60;100225.16;5116965;28;19924;-64
2024/02/20 03:53:40;;;;;;;;;;;;;;;4.20;89.76;100228.63;5116079;28;19923;-64
2024/02/20 03:56:11;;;;;;;;;;;;;;;4.24;89.50;100232.13;5117275;28;19933;-64
2024/02/20 03:58:40;;;;;;;;;;;;;;;4.19;89.22;100236.16;5117410;28;19919;-65
2024/02/20 04:01:09;;;;;;;;;;;;;;;4.09;89.32;100237.50;5116177;28;19919;-65
2024/02/20 04:03:38;;;;;;;;;;;;;;;4.10;89.60;100233.31;5115881;28;19972;-64
2024/02/20 04:06:08;;;;;;;;;;;;;;;4.15;89.72;100235.19;5116087;28;20018;-64
2024/02/20 04:08:37;;;;;;;;;;;;;;;4.23;89.80;100237.97;5115654;28;19931;-65
2024/02/20 04:11:06;;;;;;;;;;;;;;;4.24;89.82;100242.22;5116394;28;19919;-64
2024/02/20 04:13:35;;;;;;;;;;;;;;;4.23;89.69;100245.53;5117403;28;19920;-65
2024/02/20 04:16:04;;;;;;;;;;;;;;;4.19;89.65;100253.84;5116880;28;19920;-64
2024/02/20 04:18:33;;;;;;;;;;;;;;;4.20;89.90;100251.34;5115551;28;19920;-64
2024/02/20 04:21:02;;;;;;;;;;;;;;;4.26;90.08;100255.75;5115506;28;19969;-64
2024/02/20 04:23:30;;;;;;;;;;;;;;;4.28;89.75;100249.09;5115139;28;20000;-64
2024/02/20 04:25:59;;;;;;;;;;;;;;;4.32;90.00;100258.50;5116406;28;20014;-64
2024/02/20 04:28:34;;;;;;;;;;;;;;;4.33;90.43;100247.56;5115273;28;19920;-64
2024/02/20 04:31:04;;;;;;;;;;;;;;;4.33;89.97;100248.44;5115513;28;19920;-65
2024/02/20 04:33:32;;;;;;;;;;;;;;;4.29;89.99;100248.28;5115312;28;19969;-65
2024/02/20 04:36:01;;;;;;;;;;;;;;;4.29;90.11;100236.53;5116128;28;20369;-64
2024/02/20 04:38:29;;;;;;;;;;;;;;;4.36;90.34;100243.50;5116046;28;19919;-64
2024/02/20 04:40:57;;;;;;;;;;;;;;;4.38;90.49;100236.81;5116576;28;20006;-64
2024/02/20 04:43:26;;;;;;;;;;;;;;;4.37;90.60;100244.31;5115019;28;19926;-65
2024/02/20 04:45:56;;;;;;;;;;;;;;;4.38;90.61;100243.53;5115094;28;19920;-64
2024/02/20 04:48:24;;;;;;;;;;;;;;;4.35;90.53;100241.75;5116043;28;19924;-65
2024/02/20 04:50:53;;;;;;;;;;;;;;;4.28;90.38;100233.94;5116068;28;20022;-64
2024/02/20 04:53:22;;;;;;;;;;;;;;;4.26;90.83;100243.13;5116004;28;20393;-64
2024/02/20 04:55:50;;;;;;;;;;;;;;;4.30;90.84;100242.41;5116326;28;19927;-64
2024/02/20 04:58:18;;;;;;;;;;;;;;;4.34;90.80;100249.31;5116139;28;19919;-64
2024/02/20 05:00:47;;;;;;;;;;;;;;;4.38;90.51;100241.88;5115913;28;19920;-64
2024/02/20 05:03:18;;;;;;;;;;;;;;;4.41;90.90;100236.06;5115460;28;19920;-64
2024/02/20 05:05:46;;;;;;;;;;;;;;;4.42;90.66;100240.28;5116186;28;19920;-64
2024/02/20 05:08:15;;;;;;;;;;;;;;;4.38;90.85;100238.47;5114604;28;19926;-64
2024/02/20 05:10:44;;;;;;;;;;;;;;;4.36;90.88;100248.53;5115719;28;20022;-64
2024/02/20 05:13:12;;;;;;;;;;;;;;;4.38;90.57;100251.13;5115637;28;19954;-64
2024/02/20 05:15:41;;;;;;;;;;;;;;;4.36;90.63;100250.22;5114223;28;19929;-64
2024/02/20 05:18:09;;;;;;;;;;;;;;;4.30;90.42;100253.38;5115652;28;20414;-64
2024/02/20 05:20:39;;;;;;;;;;;;;;;4.30;90.41;100255.03;5115619;28;20377;-64
2024/02/20 05:23:07;;;;;;;;;;;;;;;4.29;90.58;100255.88;5114909;28;19919;-64
2024/02/20 05:25:36;;;;;;;;;;;;;;;4.28;90.42;100256.66;5113894;28;19962;-64
2024/02/20 05:28:05;;;;;;;;;;;;;;;4.21;90.51;100257.28;5115670;28;19941;-64
2024/02/20 05:30:33;;;;;;;;;;;;;;;4.12;90.49;100249.38;5115250;28;20323;-64
2024/02/20 05:33:03;;;;;;;;;;;;;;;4.08;90.65;100255.97;5115280;28;19932;-64
2024/02/20 05:35:31;;;;;;;;;;;;;;;4.05;90.70;100251.69;5114235;28;19924;-64
2024/02/20 05:38:06;;;;;;;;;;;;;;;3.98;90.58;100257.34;5114892;28;20004;-64
2024/02/20 05:40:35;;;;;;;;;;;;;;;3.92;90.52;100253.75;5115226;28;19927;-64
2024/02/20 05:43:03;;;;;;;;;;;;;;;3.82;90.49;100264.31;5115135;28;20010;-64
2024/02/20 05:45:33;;;;;;;;;;;;;;;3.84;90.27;100262.75;5114763;28;20369;-64
2024/02/20 05:48:02;;;;;;;;;;;;;;;3.82;90.14;100251.69;5115223;28;20385;-64
2024/02/20 05:50:31;;;;;;;;;;;;;;;3.84;90.45;100250.94;5114760;28;19919;-64
2024/02/20 05:53:05;;;;;;;;;;;;;;;3.83;90.47;100259.34;5113701;28;19924;-64
2024/02/20 05:55:36;;;;;;;;;;;;;;;3.88;90.58;100262.91;5114968;28;19919;-64
2024/02/20 05:58:05;;;;;;;;;;;;;;;3.95;90.66;100254.72;5115106;28;19974;-64
2024/02/20 06:00:33;;;;;;;;;;;;;;;3.94;90.65;100253.00;5114924;28;19943;-64
2024/02/20 06:03:02;;;;;;;;;;;;;;;3.95;90.69;100244.63;5114764;28;19924;-64
2024/02/20 06:05:30;;;;;;;;;;;;;;;3.99;90.81;100254.03;5114627;28;19962;-64
2024/02/20 06:07:59;;;;;;;;;;;;;;;3.98;90.60;100254.81;5114795;28;19989;-64
2024/02/20 06:10:28;;;;;;;;;;;;;;;3.99;90.64;100266.63;5114935;28;19977;-64
2024/02/20 06:12:58;;;;;;;;;;;;;;;4.07;90.62;100275.34;5114529;28;19920;-64
2024/02/20 06:15:26;;;;;;;;;;;;;;;4.18;90.34;100267.25;5114765;28;19927;-64
2024/02/20 06:17:55;;;;;;;;;;;;;;;4.23;90.75;100275.84;5114610;28;19926;-64
2024/02/20 06:20:24;;;;;;;;;;;;;;;4.29;90.45;100281.13;5114325;28;19926;-64
2024/02/20 06:22:52;;;;;;;;;;;;;;;4.36;90.99;100283.06;5114548;28;19924;-64
2024/02/20 06:25:20;;;;;;;;;;;;;;;4.51;91.04;100291.16;5114398;28;19919;-64
2024/02/20 06:27:50;;;;;;;;;;;;;;;4.86;91.30;100295.66;5113334;28;19927;-64
2024/02/20 06:30:21;;;;;;;;;;;;;;;5.03;91.10;100303.78;5114569;28;19965;-64
2024/02/20 06:32:52;;;;;;;;;;;;;;;5.08;90.79;100305.66;5114669;28;19924;-64
2024/02/20 06:35:21;;;;;;;;;;;;;;;5.06;90.91;100302.19;5118208;28;19920;-64
2024/02/20 06:37:49;;;;;;;;;;;;;;;5.04;90.69;100303.81;5118488;28;19969;-65
2024/02/20 06:40:18;;;;;;;;;;;;;;;5.16;90.47;100299.13;5118631;28;20289;-65
2024/02/20 06:42:46;;;;;;;;;;;;;;;5.25;90.27;100299.44;5118678;28;19920;-64
2024/02/20 06:45:15;;;;;;;;;;;;;;;5.27;90.38;100310.47;5118361;28;19920;-65
2024/02/20 06:47:45;;;;;;;;;;;;;;;5.33;90.32;100315.69;5118169;28;19973;-65
2024/02/20 06:50:13;;;;;;;;;;;;;;;5.35;90.27;100320.81;5118410;28;19923;-65
2024/02/20 06:52:43;;;;;;;;;;;;;;;5.35;89.87;100316.59;5117077;28;19927;-65
2024/02/20 06:55:12;;;;;;;;;;;;;;;5.38;89.90;100321.75;5118896;28;19920;-64
2024/02/20 06:57:40;;;;;;;;;;;;;;;5.46;90.09;100321.13;5117762;28;20010;-65
2024/02/20 07:00:12;;;;;;;;;;;;;;;5.50;90.01;100320.41;5118231;28;19942;-64
2024/02/20 07:02:41;;;;;;;;;;;;;;;5.55;89.89;100318.84;5099895;28;20349;-64
2024/02/20 07:05:12;;;;;;;;;;;;;;;5.57;89.36;100327.34;5118302;28;19924;-64
2024/02/20 07:07:41;;;;;;;;;;;;;;;5.60;89.23;100327.47;5117005;28;19920;-65
2024/02/20 07:10:10;;;;;;;;;;;;;;;5.60;89.42;100328.31;5117803;28;19919;-65
2024/02/20 07:12:38;;;;;;;;;;;;;;;5.60;89.21;100327.47;5118252;28;19927;-65
2024/02/20 07:15:07;;;;;;;;;;;;;;;5.62;89.29;100330.88;5117939;28;19985;-65
2024/02/20 07:17:36;;;;;;;;;;;;;;;5.73;89.31;100324.47;5117644;28;19926;-64
2024/02/20 07:20:06;;;;;;;;;;;;;;;5.81;88.91;100328.06;5117866;28;19926;-64
2024/02/20 07:22:36;;;;;;;;;;;;;;;5.97;89.51;100325.22;5117494;28;20007;-64
2024/02/20 07:25:05;;;;;;;;;;;;;;;6.18;89.53;100315.66;5117420;28;20018;-65
2024/02/20 07:27:34;;;;;;;;;;;;;;;6.37;89.16;100319.53;5117642;28;19931;-64
2024/02/20 07:30:03;;;;;;;;;;;;;;;6.63;88.98;100311.78;5117559;28;19966;-63
2024/02/20 07:32:31;;;;;;;;;;;;;;;6.87;88.59;100321.66;5117739;28;19920;-64
2024/02/20 07:35:00;;;;;;;;;;;;;;;7.03;89.42;100327.97;5117114;28;19919;-65
2024/02/20 07:37:28;;;;;;;;;;;;;;;7.25;89.04;100325.09;5117210;28;19920;-64
2024/02/20 07:39:59;;;;;;;;;;;;;;;7.35;89.18;100332.09;5117543;28;19965;-65
2024/02/20 07:42:27;;;;;;;;;;;;;;;7.46;87.59;100335.75;5116991;28;20263;-65
2024/02/20 07:44:55;;;;;;;;;;;;;;;7.57;87.61;100333.41;5116842;28;19929;-65
2024/02/20 07:47:25;;;;;;;;;;;;;;;7.70;86.51;100328.63;5117072;28;19981;-65
2024/02/20 07:49:53;;;;;;;;;;;;;;;7.82;86.77;100331.41;5117146;27;19919;-65
2024/02/20 07:52:22;;;;;;;;;;;;;;;7.79;86.91;100336.47;5116019;28;19920;-64
2024/02/20 07:54:51;;;;;;;;;;;;;;;7.80;85.78;100335.63;5115701;28;20327;-65
2024/02/20 07:57:21;;;;;;;;;;;;;;;7.81;85.63;100337.34;5117486;28;19927;-65
2024/02/20 07:59:49;;;;;;;;;;;;;;;7.79;85.22;100340.69;5116120;28;20014;-65
2024/02/20 08:02:17;;;;;;;;;;;;;;;7.76;85.12;100340.59;5117021;28;19923;-65
2024/02/20 08:04:46;;;;;;;;;;;;;;;7.74;85.66;100343.13;5117020;28;19949;-65
2024/02/20 08:07:14;;;;;;;;;;;;;;;7.76;85.04;100344.00;5116954;28;19919;-64
2024/02/20 08:09:44;;;;;;;;;;;;;;;7.82;85.05;100341.59;5116561;28;19920;-65
2024/02/20 08:12:12;;;;;;;;;;;;;;;7.86;84.98;100345.94;5116904;28;19980;-65
2024/02/20 08:14:42;;;;;;;;;;;;;;;7.90;85.08;100355.31;5107945;28;19927;-65
2024/02/20 08:17:14;;;;;;;;;;;;;;;7.97;85.45;100347.00;5096392;28;19926;-65
2024/02/20 08:19:42;;;;;;;;;;;;;;;8.02;85.91;100354.72;5096227;28;19927;-65
2024/02/20 08:22:11;;;;;;;;;;;;;;;8.04;85.64;100359.00;5095996;28;19920;-65
2024/02/20 08:24:44;;;;;;;;;;;;;;;8.04;85.60;100353.06;5096028;28;20277;-65
2024/02/20 08:27:14;;;;;;;;;;;;;;;8.05;85.72;100350.56;5096730;28;19929;-65
2024/02/20 08:29:44;;;;;;;;;;;;;;;8.11;85.71;100350.66;5096094;28;19927;-65
2024/02/20 08:32:13;;;;;;;;;;;;;;;8.16;85.72;100348.22;5094619;28;19920;-64
2024/02/20 08:34:41;;;;;;;;;;;;;;;8.19;85.31;100342.31;5095680;28;19920;-65
2024/02/20 08:37:09;;;;;;;;;;;;;;;8.21;85.67;100335.59;5096028;28;19920;-66
2024/02/20 08:39:38;;;;;;;;;;;;;;;8.29;84.98;100336.63;5095657;28;20384;-65
2024/02/20 08:42:06;;;;;;;;;;;;;;;8.40;85.32;100337.66;5095904;28;19990;-64
2024/02/20 08:44:35;;;;;;;;;;;;;;;8.45;85.19;100343.72;5095993;28;20381;-64
2024/02/20 08:47:04;;;;;;;;;;;;;;;8.62;84.23;100344.88;5095708;28;19980;-65
2024/02/20 08:49:33;;;;;;;;;;;;;;;8.82;84.28;100345.22;5096388;28;19920;-65
2024/02/20 08:52:02;;;;;;;;;;;;;;;9.17;84.03;100337.31;5095518;28;19960;-65
2024/02/20 08:54:31;;;;;;;;;;;;;;;9.44;83.77;100336.88;5096002;28;20082;-66
2024/02/20 08:56:59;;;;;;;;;;;;;;;9.66;82.48;100333.78;5094789;28;19926;-65
2024/02/20 08:59:27;;;;;;;;;;;;;;;9.85;81.06;100335.75;5095548;28;19920;-65
2024/02/20 09:01:56;;;;;;;;;;;;;;;10.02;80.52;100318.09;5094327;28;19928;-65
2024/02/20 09:04:27;;;;;;;;;;;;;;;10.21;79.21;100339.59;5095460;28;19991;-65
2024/02/20 09:06:58;;;;;;;;;;;;;;;10.18;79.04;100342.09;5095499;28;19924;-65
2024/02/20 09:09:27;;;;;;;;;;;;;;;10.19;78.84;100342.13;5095093;28;19935;-65
2024/02/20 09:11:55;;;;;;;;;;;;;;;10.22;78.38;100342.13;5095336;28;19927;-65
2024/02/20 09:14:28;;;;;;;;;;;;;;;10.34;78.04;100338.91;5094080;28;20011;-65
2024/02/20 09:16:57;;;;;;;;;;;;;;;10.51;77.71;100343.31;5095199;28;19961;-66
2024/02/20 09:19:26;;;;;;;;;;;;;;;10.83;77.06;100340.22;5094055;28;19951;-65
2024/02/20 09:21:55;;;;;;;;;;;;;;;10.86;76.16;100347.91;5095415;28;19963;-65
2024/02/20 09:24:24;;;;;;;;;;;;;;;10.69;75.14;100340.97;5095026;28;19942;-65
2024/02/20 09:26:52;;;;;;;;;;;;;;;10.61;75.41;100341.72;5095103;28;19920;-66
2024/02/20 09:29:21;;;;;;;;;;;;;;;10.48;74.91;100339.91;5095377;28;19920;-65
2024/02/20 09:31:50;;;;;;;;;;;;;;;10.39;74.66;100340.63;5076493;28;19920;-65
2024/02/20 09:34:22;;;;;;;;;;;;;;;10.44;74.82;100343.22;5095036;28;20278;-66
2024/02/20 09:36:52;;;;;;;;;;;;;;;10.52;75.43;100346.72;5094906;28;20028;-65
2024/02/20 09:39:22;;;;;;;;;;;;;;;10.57;75.23;100351.06;5094753;28;20283;-64
2024/02/20 09:41:51;;;;;;;;;;;;;;;10.63;74.98;100343.44;5094816;28;19920;-65
2024/02/20 09:44:20;;;;;;;;;;;;;;;10.75;75.09;100353.75;5094678;28;19920;-65
2024/02/20 09:46:53;;;;;;;;;;;;;;;10.87;75.11;100350.47;5094733;28;19924;-67
2024/02/20 09:49:22;;;;;;;;;;;;;;;10.92;74.87;100347.97;5093568;28;20275;-65
2024/02/20 09:51:54;;;;;;;;;;;;;;;10.92;74.20;100355.63;5094674;28;19920;-64
2024/02/20 09:54:23;;;;;;;;;;;;;;;10.96;74.43;100349.69;5094570;28;20019;-65
2024/02/20 09:56:55;;;;;;;;;;;;;;;11.08;74.17;100344.69;5093350;28;19924;-65
2024/02/20 09:59:25;;;;;;;;;;;;;;;11.32;74.25;100344.88;5076553;28;20018;-66
2024/02/20 10:01:54;;;;;;;;;;;;;;;11.55;73.56;100338.19;5094716;28;19920;-66
2024/02/20 10:04:23;;;;;;;;;;;;;;;11.79;73.45;100335.81;5094587;28;20366;-66
2024/02/20 10:06:53;;;;;;;;;;;;;;;12.05;71.83;100331.66;5094328;28;19936;-66
2024/02/20 10:09:22;;;;;;;;;;;;;;;12.18;71.40;100339.38;5094816;28;19926;-66
2024/02/20 10:11:50;;;;;;;;;;;;;;;12.27;70.70;100336.84;5094116;28;19920;-65
2024/02/20 10:14:27;;;;;;;;;;;;;;;12.47;71.15;100332.63;5094022;28;19920;-65
2024/02/20 10:16:59;;;;;;;;;;;;;;;12.76;70.32;100326.69;5094713;28;19927;-66
2024/02/20 10:19:27;;;;;;;;;;;;;;;12.86;69.20;100324.97;5094368;28;20023;-65
2024/02/20 10:21:59;;;;;;;;;;;;;;;13.00;69.08;100322.44;5094336;28;19920;-66
2024/02/20 10:24:28;;;;;;;;;;;;;;;13.03;68.19;100328.41;5093895;28;19919;-66
2024/02/20 10:27:06;;;;;;;;;;;;;;;12.95;67.90;100321.59;5094656;28;19966;-66
2024/02/20 10:29:34;;;;;;;;;;;;;;;12.86;68.11;100324.16;5093922;28;19927;-66
2024/02/20 10:32:03;;;;;;;;;;;;;;;12.66;66.77;100316.44;5093864;28;19920;-66
2024/02/20 10:34:31;;;;;;;;;;;;;;;12.61;67.39;100318.16;5094393;28;20415;-66
2024/02/20 10:37:07;;;;;;;;;;;;;;;12.53;67.44;100315.56;5093594;28;19922;-65
2024/02/20 10:39:36;;;;;;;;;;;;;;;12.45;67.32;100311.31;5092367;28;19962;-65
2024/02/20 10:42:07;;;;;;;;;;;;;;;12.46;68.18;100313.84;5093893;28;19920;-66
2024/02/20 10:44:36;;;;;;;;;;;;;;;12.63;68.76;100307.06;5094069;28;20415;-66
2024/02/20 10:47:05;;;;;;;;;;;;;;;12.80;68.74;100309.63;5093905;28;19970;-65
2024/02/20 10:49:34;;;;;;;;;;;;;;;12.90;68.71;100303.66;5093856;28;19920;-65
2024/02/20 10:52:03;;;;;;;;;;;;;;;13.03;68.50;100307.91;5093761;28;19935;-66
2024/02/20 10:54:34;;;;;;;;;;;;;;;13.14;67.86;100306.22;5093979;28;19920;-65
2024/02/20 10:57:15;;;;;;;;;;;;;;;13.01;67.68;100299.38;5092441;28;20291;-66
2024/02/20 10:59:44;;;;;;;;;;;;;;;12.94;67.44;100292.53;5092761;28;20444;-66
2024/02/20 11:02:13;;;;;;;;;;;;;;;12.78;67.41;100290.84;5094426;28;19920;-66
2024/02/20 11:04:42;;;;;;;;;;;;;;;12.64;67.82;100288.25;5093699;28;20361;-65
2024/02/20 11:07:11;;;;;;;;;;;;;;;12.52;68.47;100287.41;5093875;28;19920;-66
2024/02/20 11:09:41;;;;;;;;;;;;;;;12.41;69.02;100283.97;5093879;28;19930;-66
2024/02/20 11:12:10;;;;;;;;;;;;;;;12.26;69.76;100278.84;5093697;28;19919;-65
2024/02/20 11:14:38;;;;;;;;;;;;;;;12.23;70.06;100273.72;5093857;28;19920;-65
2024/02/20 11:17:13;;;;;;;;;;;;;;;12.17;69.88;100278.78;5093450;28;20457;-65
2024/02/20 11:20:05;;;;;;;;;;;;;;;12.16;70.87;100272.00;5093588;28;19927;-66
2024/02/20 11:22:34;;;;;;;;;;;;;;;12.20;70.94;100269.44;5097607;28;19924;-66
2024/02/20 11:25:10;;;;;;;;;;;;;;;12.23;70.83;100273.72;5097020;28;19920;-65
2024/02/20 11:27:42;;;;;;;;;;;;;;;12.18;71.37;100265.16;5097091;28;19924;-65
2024/02/20 11:30:17;;;;;;;;;;;;;;;12.31;71.60;100272.03;5097337;28;19927;-66
2024/02/20 11:32:46;;;;;;;;;;;;;;;12.84;71.35;100275.44;5097086;28;19920;-66
2024/02/20 11:35:22;;;;;;;;;;;;;;;13.22;70.78;100276.28;5097229;28;19919;-65
2024/02/20 11:37:53;;;;;;;;;;;;;;;13.56;70.27;100264.25;5097410;28;19961;-66
2024/02/20 11:40:25;;;;;;;;;;;;;;;13.77;69.37;100263.31;5097231;28;19920;-66
2024/02/20 11:42:55;;;;;;;;;;;;;;;14.06;68.49;100261.44;5096803;28;19924;-66
2024/02/20 11:45:25;;;;;;;;;;;;;;;14.10;67.98;100253.75;5097023;28;20278;-66
2024/02/20 11:48:00;;;;;;;;;;;;;;;13.87;67.30;100259.84;5096935;28;19920;-66
2024/02/20 11:50:29;;;;;;;;;;;;;;;13.66;66.75;100259.94;5096989;28;19919;-67
2024/02/20 11:53:03;;;;;;;;;;;;;;;13.43;66.97;100257.47;5096610;28;19997;-66
2024/02/20 11:55:33;;;;;;;;;;;;;;;13.21;67.68;100256.66;5096878;28;20010;-66
2024/02/20 11:58:04;;;;;;;;;;;;;;;12.79;67.84;100257.53;5096497;28;20361;-65
2024/02/20 12:00:33;;;;;;;;;;;;;;;12.71;68.43;100258.41;5096916;28;19962;-66
2024/02/20 12:03:02;;;;;;;;;;;;;;;12.57;68.57;100252.44;5096705;28;19920;-65
2024/02/20 12:05:37;;;;;;;;;;;;;;;12.34;69.08;100254.09;5094996;28;20335;-66
2024/02/20 12:08:11;;;;;;;;;;;;;;;12.25;69.25;100248.97;5096422;28;19942;-65
2024/02/20 12:10:42;;;;;;;;;;;;;;;12.26;69.95;100248.13;5096685;28;19924;-66
2024/02/20 12:13:14;;;;;;;;;;;;;;;12.28;70.11;100251.53;5096286;28;19920;-66
2024/02/20 12:15:43;;;;;;;;;;;;;;;12.32;70.17;100248.13;5096594;28;19920;-66
2024/02/20 12:18:22;;;;;;;;;;;;;;;12.32;70.40;100243.00;5095469;28;19926;-65
2024/02/20 12:20:51;;;;;;;;;;;;;;;12.33;70.52;100242.16;5096676;28;19924;-66
2024/02/20 12:23:20;;;;;;;;;;;;;;;12.26;70.13;100237.88;5095904;28;19920;-66
2024/02/20 12:25:50;;;;;;;;;;;;;;;12.23;70.40;100235.31;5095891;28;19923;-66
2024/02/20 12:28:18;;;;;;;;;;;;;;;12.21;70.11;100244.69;5096080;28;19969;-66
2024/02/20 12:30:49;;;;;;;;;;;;;;;12.23;69.43;100235.31;5095570;28;19920;-65
2024/02/20 12:33:18;;;;;;;;;;;;;;;12.27;68.84;100226.78;5095277;28;19942;-65
2024/02/20 12:35:46;;;;;;;;;;;;;;;12.27;68.57;100229.34;5096077;28;19927;-66
2024/02/20 12:38:14;;;;;;;;;;;;;;;12.29;68.54;100232.75;5096077;28;19920;-66
2024/02/20 12:40:43;;;;;;;;;;;;;;;12.31;68.51;100223.41;5095891;28;19963;-66
2024/02/20 12:43:14;;;;;;;;;;;;;;;12.31;68.60;100228.50;5095888;28;19919;-65
2024/02/20 12:45:42;;;;;;;;;;;;;;;12.24;68.54;100235.31;5095634;28;19920;-66
2024/02/20 12:48:11;;;;;;;;;;;;;;;12.19;68.27;100231.06;5095791;28;20353;-66
2024/02/20 12:50:39;;;;;;;;;;;;;;;12.02;68.42;100236.16;5095760;28;20308;-66
2024/02/20 12:53:08;;;;;;;;;;;;;;;11.90;68.86;100229.25;5094305;28;19927;-65